createdAt,value
2018-11-23T00:00:08.236Z,83.00
2018-11-23T00:02:36.660Z,83.00
2018-11-23T00:05:05.378Z,83.10
2018-11-23T00:07:33.809Z,83.20
2018-11-23T00:10:02.269Z,83.50
2018-11-23T00:12:30.715Z,83.70
2018-11-23T00:14:59.115Z,83.80
2018-11-23T00:17:27.581Z,83.70
2018-11-23T00:19:56.012Z,83.90
2018-11-23T00:22:24.403Z,83.80
2018-11-23T00:24:52.864Z,83.90
2018-11-23T00:27:21.346Z,83.90
2018-11-23T00:29:49.768Z,83.90
2018-11-23T00:32:18.204Z,84.00
2018-11-23T00:34:46.653Z,83.60
2018-11-23T00:37:15.066Z,83.70
2018-11-23T00:39:43.485Z,83.30
2018-11-23T00:42:11.891Z,83.40
2018-11-23T00:44:40.325Z,83.70
2018-11-23T00:47:08.751Z,83.20
2018-11-23T00:49:37.180Z,83.50
2018-11-23T00:52:06.006Z,83.90
2018-11-23T00:54:34.660Z,84.00
2018-11-23T00:57:03.055Z,83.90
2018-11-23T00:59:31.469Z,84.10
2018-11-23T01:02:04.766Z,84.10
2018-11-23T01:04:34.179Z,84.30
2018-11-23T01:07:03.074Z,84.40
2018-11-23T01:09:31.489Z,84.60
2018-11-23T01:11:59.922Z,84.60
2018-11-23T01:14:28.342Z,84.70
2018-11-23T01:16:56.812Z,84.20
2018-11-23T01:19:25.259Z,84.60
2018-11-23T01:21:53.678Z,84.60
2018-11-23T01:24:22.108Z,84.30
2018-11-23T01:26:50.538Z,84.40
2018-11-23T01:29:19.001Z,84.40
2018-11-23T01:31:47.401Z,84.60
2018-11-23T01:34:15.862Z,84.60
2018-11-23T01:36:44.276Z,84.80
2018-11-23T01:39:12.707Z,85.00
2018-11-23T01:41:41.161Z,85.10
2018-11-23T01:44:09.863Z,85.20
2018-11-23T01:46:38.368Z,85.50
2018-11-23T01:49:06.873Z,85.40
2018-11-23T01:51:35.265Z,85.40
2018-11-23T01:54:03.702Z,85.40
2018-11-23T01:56:32.109Z,85.40
2018-11-23T01:59:00.516Z,85.20
2018-11-23T02:01:28.916Z,85.10
2018-11-23T02:03:57.319Z,85.10
2018-11-23T02:06:25.734Z,84.90
2018-11-23T02:08:54.138Z,84.80
2018-11-23T02:11:22.547Z,84.70
2018-11-23T02:13:51.009Z,84.70
2018-11-23T02:16:19.495Z,84.70
2018-11-23T02:18:47.901Z,84.60
2018-11-23T02:21:16.344Z,85.00
2018-11-23T02:23:44.764Z,85.00
2018-11-23T02:26:13.244Z,85.10
2018-11-23T02:28:41.698Z,84.90
2018-11-23T02:31:10.472Z,85.10
2018-11-23T02:33:40.389Z,85.30
2018-11-23T02:36:09.803Z,85.40
2018-11-23T02:38:38.579Z,85.20
2018-11-23T02:41:06.990Z,85.40
2018-11-23T02:43:35.387Z,85.60
2018-11-23T02:46:03.850Z,85.40
2018-11-23T02:48:32.264Z,85.60
2018-11-23T02:51:00.679Z,85.50
2018-11-23T02:53:29.071Z,85.60
2018-11-23T02:55:57.478Z,85.50
2018-11-23T02:58:25.933Z,85.50
2018-11-23T03:00:54.364Z,85.60
2018-11-23T03:03:22.787Z,86.00
2018-11-23T03:05:51.216Z,86.10
2018-11-23T03:08:19.615Z,86.50
2018-11-23T03:10:48.030Z,86.60
2018-11-23T03:13:16.437Z,87.40
2018-11-23T03:15:44.871Z,86.70
2018-11-23T03:18:13.299Z,86.70
2018-11-23T03:20:41.730Z,86.70
2018-11-23T03:23:10.238Z,86.70
2018-11-23T03:25:38.709Z,87.20
2018-11-23T03:28:07.121Z,87.00
2018-11-23T03:30:35.655Z,87.10
2018-11-23T03:33:04.311Z,87.30
2018-11-23T03:35:32.749Z,87.00
2018-11-23T03:38:01.308Z,87.40
2018-11-23T03:40:29.726Z,87.20
2018-11-23T03:42:58.155Z,87.10
2018-11-23T03:45:26.646Z,87.30
2018-11-23T03:47:55.058Z,87.30
2018-11-23T03:50:23.571Z,87.00
2018-11-23T03:52:51.983Z,87.10
2018-11-23T03:55:20.399Z,87.10
2018-11-23T03:57:48.812Z,87.10
2018-11-23T04:00:19.036Z,87.30
2018-11-23T04:02:48.013Z,87.60
2018-11-23T04:05:16.788Z,87.60
2018-11-23T04:07:45.398Z,88.30
2018-11-23T04:10:14.777Z,87.70
2018-11-23T04:12:43.674Z,87.80
2018-11-23T04:15:12.579Z,87.30
2018-11-23T04:17:41.551Z,88.00
2018-11-23T04:20:12.595Z,88.20
2018-11-23T04:22:41.695Z,88.40
2018-11-23T04:25:10.459Z,88.50
2018-11-23T04:27:38.899Z,88.30
2018-11-23T04:30:13.154Z,88.60
2018-11-23T04:32:41.602Z,88.50
2018-11-23T04:35:12.062Z,88.80
2018-11-23T04:37:40.656Z,89.00
2018-11-23T04:40:10.456Z,89.00
2018-11-23T04:42:39.239Z,88.80
2018-11-23T04:45:08.143Z,89.80
2018-11-23T04:47:37.014Z,89.20
2018-11-23T04:50:06.326Z,89.10
2018-11-23T04:52:34.783Z,89.10
2018-11-23T04:55:03.291Z,89.10
2018-11-23T04:57:31.717Z,89.10
2018-11-23T05:00:00.127Z,89.00
2018-11-23T05:02:28.603Z,89.10
2018-11-23T05:04:57.016Z,89.10
2018-11-23T05:07:25.440Z,89.10
2018-11-23T05:09:53.885Z,89.10
2018-11-23T05:12:22.338Z,89.10
2018-11-23T05:14:50.776Z,89.30
2018-11-23T05:17:19.289Z,89.40
2018-11-23T05:19:47.734Z,89.50
2018-11-23T05:22:16.179Z,89.70
2018-11-23T05:24:44.592Z,90.00
2018-11-23T05:27:13.117Z,90.20
2018-11-23T05:29:41.523Z,90.10
2018-11-23T05:32:09.965Z,90.00
2018-11-23T05:34:38.351Z,90.00
2018-11-23T05:37:06.807Z,90.30
2018-11-23T05:39:35.262Z,90.10
2018-11-23T05:42:03.671Z,90.10
2018-11-23T05:44:32.077Z,90.00
2018-11-23T05:47:00.504Z,90.10
2018-11-23T05:49:28.954Z,90.00
2018-11-23T05:51:57.369Z,90.00
2018-11-23T05:54:25.784Z,90.00
2018-11-23T05:56:54.220Z,90.00
2018-11-23T05:59:23.028Z,90.10
2018-11-23T06:01:51.496Z,90.10
2018-11-23T06:04:19.920Z,90.10
2018-11-23T06:06:48.349Z,90.00
2018-11-23T06:09:16.823Z,90.00
2018-11-23T06:11:45.223Z,90.00
2018-11-23T06:14:13.642Z,90.00
2018-11-23T06:16:42.053Z,89.90
2018-11-23T06:19:10.482Z,89.90
2018-11-23T06:21:38.889Z,90.00
2018-11-23T06:24:07.291Z,90.00
2018-11-23T06:26:36.054Z,89.80
2018-11-23T06:29:04.489Z,89.80
2018-11-23T06:31:32.927Z,89.70
2018-11-23T06:34:01.384Z,89.80
2018-11-23T06:36:29.801Z,89.80
2018-11-23T06:38:58.219Z,90.00
2018-11-23T06:41:26.634Z,90.00
2018-11-23T06:43:55.052Z,89.80
2018-11-23T06:46:23.458Z,89.70
2018-11-23T06:48:51.901Z,89.40
2018-11-23T06:51:20.314Z,89.40
2018-11-23T06:53:48.734Z,89.40
2018-11-23T06:56:17.148Z,89.30
2018-11-23T06:58:45.537Z,89.40
2018-11-23T07:01:13.984Z,89.70
2018-11-23T07:03:42.402Z,89.60
2018-11-23T07:06:10.790Z,89.70
2018-11-23T07:08:39.232Z,89.80
2018-11-23T07:11:07.644Z,89.80
2018-11-23T07:13:36.107Z,90.00
2018-11-23T07:16:04.548Z,90.00
2018-11-23T07:18:32.973Z,90.00
2018-11-23T07:21:01.487Z,90.00
2018-11-23T07:23:29.949Z,90.00
2018-11-23T07:25:58.402Z,90.00
2018-11-23T07:28:26.877Z,90.00
2018-11-23T07:31:02.004Z,90.00
2018-11-23T07:33:23.849Z,89.80
2018-11-23T07:35:52.274Z,89.70
2018-11-23T07:38:20.705Z,89.60
2018-11-23T07:41:57.990Z,89.50
2018-11-23T07:44:26.405Z,89.40
2018-11-23T07:46:54.821Z,89.30
2018-11-23T07:49:23.240Z,89.10
2018-11-23T07:51:51.687Z,89.00
2018-11-23T07:54:20.387Z,88.70
2018-11-23T07:56:48.830Z,88.80
2018-11-23T07:59:17.278Z,88.70
2018-11-23T08:01:45.730Z,88.80
2018-11-23T08:04:14.242Z,88.40
2018-11-23T08:06:42.996Z,88.30
2018-11-23T08:09:11.516Z,88.00
2018-11-23T08:11:39.931Z,87.70
2018-11-23T08:14:08.425Z,87.60
2018-11-23T08:16:36.864Z,87.30
2018-11-23T08:19:05.386Z,87.20
2018-11-23T08:21:34.069Z,86.80
2018-11-23T08:24:02.531Z,86.60
2018-11-23T08:26:31.030Z,86.60
2018-11-23T08:28:59.480Z,86.20
2018-11-23T08:31:27.939Z,86.00
2018-11-23T08:33:56.410Z,85.80
2018-11-23T08:36:24.829Z,85.50
2018-11-23T08:38:53.371Z,85.40
2018-11-23T08:41:21.786Z,85.40
2018-11-23T08:43:50.241Z,85.30
2018-11-23T08:46:18.703Z,85.30
2018-11-23T08:48:47.271Z,85.00
2018-11-23T08:51:15.690Z,84.80
2018-11-23T08:53:44.171Z,84.30
2018-11-23T08:56:12.615Z,84.00
2018-11-23T08:58:41.060Z,83.80
2018-11-23T09:01:09.536Z,83.90
2018-11-23T09:03:37.955Z,83.90
2018-11-23T09:06:06.399Z,83.40
2018-11-23T09:08:34.884Z,82.60
2018-11-23T09:11:03.290Z,82.10
2018-11-23T09:13:32.081Z,81.80
2018-11-23T09:16:00.515Z,81.40
2018-11-23T09:18:28.963Z,80.70
2018-11-23T09:20:57.415Z,80.60
2018-11-23T09:23:25.828Z,80.30
2018-11-23T09:25:54.314Z,79.70
2018-11-23T09:28:22.813Z,78.90
2018-11-23T09:30:51.226Z,78.60
2018-11-23T09:33:19.650Z,78.50
2018-11-23T09:35:48.294Z,77.80
2018-11-23T09:38:16.797Z,78.10
2018-11-23T09:40:45.319Z,77.50
2018-11-23T09:43:13.839Z,77.10
2018-11-23T09:45:42.392Z,75.60
2018-11-23T09:48:10.979Z,76.00
2018-11-23T09:50:39.472Z,74.80
2018-11-23T09:53:08.065Z,74.90
2018-11-23T09:55:37.441Z,74.80
2018-11-23T09:58:06.023Z,75.40
2018-11-23T10:00:35.761Z,75.20
2018-11-23T10:03:05.073Z,74.10
2018-11-23T10:08:04.391Z,71.70
2018-11-23T10:10:32.938Z,70.60
2018-11-23T10:13:01.433Z,71.10
2018-11-23T10:15:31.004Z,71.50
2018-11-23T10:17:59.477Z,71.50
2018-11-23T10:20:29.294Z,72.10
2018-11-23T10:22:57.757Z,72.30
2018-11-23T10:25:28.526Z,72.70
2018-11-23T10:27:57.198Z,72.40
2018-11-23T10:30:31.084Z,73.30
2018-11-23T10:33:00.906Z,70.40
2018-11-23T10:35:29.575Z,66.50
2018-11-23T10:37:59.392Z,62.30
2018-11-23T10:40:30.406Z,59.60
2018-11-23T10:42:58.987Z,59.90
2018-11-23T10:45:29.108Z,59.10
2018-11-23T10:47:58.544Z,59.40
2018-11-23T10:50:28.848Z,60.70
2018-11-23T10:52:57.312Z,61.00
2018-11-23T10:55:28.694Z,61.90
2018-11-23T10:57:57.271Z,63.70
2018-11-23T11:00:31.251Z,65.40
2018-11-23T11:03:02.430Z,67.10
2018-11-23T11:05:36.819Z,67.50
2018-11-23T11:08:05.823Z,69.00
2018-11-23T11:10:34.351Z,68.90
2018-11-23T11:13:02.889Z,69.90
2018-11-23T11:15:31.778Z,70.10
2018-11-23T11:18:00.628Z,71.00
2018-11-23T11:20:29.088Z,71.10
2018-11-23T11:23:04.091Z,70.20
2018-11-23T11:25:32.531Z,66.40
2018-11-23T11:28:00.958Z,61.60
2018-11-23T11:30:29.395Z,59.90
2018-11-23T11:32:57.854Z,56.90
2018-11-23T11:35:26.280Z,55.20
2018-11-23T11:37:54.687Z,56.50
2018-11-23T11:40:23.147Z,57.90
2018-11-23T11:42:51.593Z,59.40
2018-11-23T11:45:20.000Z,61.60
2018-11-23T11:47:48.728Z,61.70
2018-11-23T11:50:17.173Z,60.30
2018-11-23T11:52:46.980Z,54.00
2018-11-23T11:55:19.870Z,46.80
2018-11-23T11:57:48.835Z,42.80
2018-11-23T12:00:18.689Z,39.50
2018-11-23T12:02:47.748Z,38.20
2018-11-23T12:05:16.198Z,36.50
2018-11-23T12:07:44.643Z,35.20
2018-11-23T12:10:22.166Z,34.30
2018-11-23T12:12:50.599Z,33.80
2018-11-23T12:15:19.057Z,34.10
2018-11-23T12:17:47.505Z,33.70
2018-11-23T12:20:23.641Z,33.40
2018-11-23T12:22:52.499Z,33.20
2018-11-23T12:25:21.580Z,33.60
2018-11-23T12:27:50.033Z,33.90
2018-11-23T12:30:19.761Z,33.40
2018-11-23T12:32:49.590Z,33.30
2018-11-23T12:35:19.101Z,34.30
2018-11-23T12:37:47.533Z,34.50
2018-11-23T12:40:17.171Z,35.60
2018-11-23T12:42:46.353Z,36.00
2018-11-23T12:45:16.279Z,36.10
2018-11-23T12:47:44.690Z,36.90
2018-11-23T12:50:16.151Z,37.50
2018-11-23T12:52:44.646Z,38.10
2018-11-23T12:55:13.579Z,38.30
2018-11-23T12:57:42.354Z,38.80
2018-11-23T13:00:20.619Z,39.00
2018-11-23T13:02:50.909Z,38.50
2018-11-23T13:05:20.071Z,39.50
2018-11-23T13:07:48.988Z,39.30
2018-11-23T13:10:17.471Z,39.80
2018-11-23T13:12:50.713Z,40.00
2018-11-23T13:15:14.473Z,40.00
2018-11-23T13:17:42.890Z,40.10
2018-11-23T13:20:13.037Z,40.90
2018-11-23T13:22:41.472Z,40.40
2018-11-23T13:25:12.526Z,40.10
2018-11-23T13:27:40.962Z,40.80
2018-11-23T13:30:11.502Z,40.40
2018-11-23T13:32:40.409Z,39.80
2018-11-23T13:35:10.436Z,40.00
2018-11-23T13:37:38.904Z,39.70
2018-11-23T13:40:10.054Z,39.30
2018-11-23T13:42:38.471Z,39.20
2018-11-23T13:45:08.325Z,38.50
2018-11-23T13:47:36.764Z,38.30
2018-11-23T13:50:06.828Z,38.00
2018-11-23T13:52:35.247Z,38.50
2018-11-23T13:55:03.888Z,40.60
2018-11-23T13:57:32.334Z,44.50
2018-11-23T14:00:00.756Z,47.80
2018-11-23T14:02:29.185Z,50.80
2018-11-23T14:04:57.598Z,53.40
2018-11-23T14:07:26.421Z,55.50
2018-11-23T14:09:54.884Z,57.50
2018-11-23T14:12:23.346Z,59.00
2018-11-23T14:14:51.838Z,60.20
2018-11-23T14:17:20.273Z,61.80
2018-11-23T14:19:48.688Z,62.90
2018-11-23T14:22:17.116Z,63.90
2018-11-23T14:24:45.538Z,64.60
2018-11-23T14:27:13.953Z,65.40
2018-11-23T14:29:42.383Z,66.20
2018-11-23T14:32:10.785Z,66.70
2018-11-23T14:34:39.260Z,67.80
2018-11-23T14:37:07.726Z,68.30
2018-11-23T14:39:36.201Z,69.20
2018-11-23T14:42:05.187Z,69.80
2018-11-23T14:44:33.705Z,70.40
2018-11-23T14:47:02.154Z,71.00
2018-11-23T14:49:30.565Z,71.60
2018-11-23T14:51:58.987Z,72.50
2018-11-23T14:54:27.425Z,72.70
2018-11-23T14:56:55.921Z,73.40
2018-11-23T14:59:24.352Z,73.30
2018-11-23T15:01:52.816Z,73.30
2018-11-23T15:04:21.276Z,74.10
2018-11-23T15:06:49.767Z,74.20
2018-11-23T15:09:18.249Z,75.10
2018-11-23T15:11:46.762Z,75.60
2018-11-23T15:14:15.195Z,75.90
2018-11-23T15:16:43.626Z,76.20
2018-11-23T15:19:12.050Z,76.60
2018-11-23T15:21:40.495Z,76.90
2018-11-23T15:24:08.956Z,77.40
2018-11-23T15:26:37.447Z,77.80
2018-11-23T15:29:06.158Z,78.50
2018-11-23T15:31:34.589Z,79.80
2018-11-23T15:34:03.053Z,79.40
2018-11-23T15:36:31.484Z,79.90
2018-11-23T15:38:59.937Z,80.20
2018-11-23T15:41:28.379Z,80.50
2018-11-23T15:43:56.786Z,80.70
2018-11-23T15:46:25.335Z,81.40
2018-11-23T15:48:53.900Z,81.50
2018-11-23T15:51:22.365Z,81.80
2018-11-23T15:53:50.826Z,82.30
2018-11-23T15:56:19.265Z,83.00
2018-11-23T15:58:47.686Z,83.20
2018-11-23T16:01:16.164Z,83.50
2018-11-23T16:03:45.285Z,84.60
2018-11-23T16:06:13.741Z,84.20
2018-11-23T16:08:42.292Z,84.10
2018-11-23T16:11:10.765Z,84.40
2018-11-23T16:13:39.180Z,84.80
2018-11-23T16:16:07.581Z,85.10
2018-11-23T16:18:36.067Z,85.40
2018-11-23T16:21:04.746Z,85.60
2018-11-23T16:23:33.278Z,85.80
2018-11-23T16:26:01.763Z,85.80
2018-11-23T16:28:30.207Z,86.50
2018-11-23T16:30:58.651Z,86.80
2018-11-23T16:33:27.116Z,86.90
2018-11-23T16:35:55.823Z,87.00
2018-11-23T16:38:24.698Z,87.40
2018-11-23T16:40:54.746Z,87.60
2018-11-23T16:43:23.579Z,87.80
2018-11-23T16:45:52.004Z,87.80
2018-11-23T16:48:21.291Z,87.90
2018-11-23T16:50:49.838Z,88.20
2018-11-23T16:53:19.370Z,88.30
2018-11-23T16:55:47.927Z,88.10
2018-11-23T16:58:16.460Z,88.00
2018-11-23T17:00:47.171Z,88.10
2018-11-23T17:03:18.250Z,88.10
2018-11-23T17:05:54.731Z,88.10
2018-11-23T17:08:23.619Z,87.90
2018-11-23T17:10:54.969Z,88.00
2018-11-23T17:13:23.755Z,88.20
2018-11-23T17:15:52.211Z,88.00
2018-11-23T17:18:20.688Z,88.20
2018-11-23T17:20:49.144Z,88.10
2018-11-23T17:23:17.673Z,88.10
2018-11-23T17:25:46.104Z,88.00
2018-11-23T17:28:14.556Z,88.20
2018-11-23T17:30:43.019Z,88.40
2018-11-23T17:33:11.454Z,88.60
2018-11-23T17:35:39.923Z,88.50
2018-11-23T17:38:08.361Z,88.60
2018-11-23T17:40:38.607Z,88.80
2018-11-23T17:43:07.443Z,88.90
2018-11-23T17:45:36.041Z,88.90
2018-11-23T17:48:05.023Z,88.70
2018-11-23T17:50:34.838Z,88.70
2018-11-23T17:53:03.531Z,88.70
2018-11-23T17:55:32.230Z,88.80
2018-11-23T17:58:00.823Z,88.90
2018-11-23T18:00:38.498Z,89.20
2018-11-23T18:03:01.391Z,89.40
2018-11-23T18:05:30.843Z,89.40
2018-11-23T18:07:59.977Z,89.20
2018-11-23T18:10:29.890Z,89.30
2018-11-23T18:12:59.094Z,89.30
2018-11-23T18:15:28.909Z,89.30
2018-11-23T18:17:58.385Z,89.60
2018-11-23T18:20:27.727Z,89.60
2018-11-23T18:22:56.906Z,89.80
2018-11-23T18:25:29.788Z,89.70
2018-11-23T18:28:00.266Z,89.70
2018-11-23T18:30:31.733Z,89.80
2018-11-23T18:33:01.041Z,89.70
2018-11-23T18:35:29.520Z,89.80
2018-11-23T18:37:57.968Z,89.80
2018-11-23T18:40:26.448Z,90.00
2018-11-23T18:42:54.928Z,89.80
2018-11-23T18:45:23.438Z,89.80
2018-11-23T18:47:51.846Z,89.70
2018-11-23T18:50:20.316Z,89.90
2018-11-23T18:52:48.811Z,90.00
2018-11-23T18:55:18.236Z,89.80
2018-11-23T18:57:45.788Z,89.80
2018-11-23T19:00:15.650Z,89.90
2018-11-23T19:02:46.259Z,90.00
2018-11-23T19:05:20.163Z,90.10
2018-11-23T19:07:48.674Z,90.00
2018-11-23T19:10:17.149Z,90.00
2018-11-23T19:12:45.599Z,90.00
2018-11-23T19:15:15.217Z,90.10
2018-11-23T19:17:43.669Z,90.10
2018-11-23T19:20:17.296Z,90.20
2018-11-23T19:22:46.870Z,90.20
2018-11-23T19:25:15.333Z,90.20
2018-11-23T19:27:43.746Z,90.30
2018-11-23T19:30:14.597Z,90.40
2018-11-23T19:32:43.062Z,90.30
2018-11-23T19:35:11.544Z,90.20
2018-11-23T19:37:40.006Z,90.30
2018-11-23T19:40:10.063Z,90.30
2018-11-23T19:42:38.575Z,90.40
2018-11-23T19:45:09.252Z,90.60
2018-11-23T19:47:37.741Z,90.60
2018-11-23T19:50:08.729Z,90.60
2018-11-23T19:52:37.181Z,90.70
2018-11-23T19:55:06.063Z,90.60
2018-11-23T19:57:34.531Z,90.40
2018-11-23T20:00:03.069Z,90.40
2018-11-23T20:02:31.538Z,90.30
2018-11-23T20:04:59.971Z,90.20
2018-11-23T20:07:28.404Z,90.20
2018-11-23T20:09:56.855Z,90.10
2018-11-23T20:12:25.339Z,90.20
2018-11-23T20:14:53.748Z,90.30
2018-11-23T20:17:22.196Z,90.30
2018-11-23T20:19:50.622Z,90.10
2018-11-23T20:22:19.077Z,90.00
2018-11-23T20:24:47.523Z,89.90
2018-11-23T20:27:16.025Z,89.80
2018-11-23T20:29:44.484Z,90.00
2018-11-23T20:32:13.000Z,90.30
2018-11-23T20:34:41.545Z,90.20
2018-11-23T20:37:09.953Z,90.30
2018-11-23T20:39:38.404Z,90.10
2018-11-23T20:42:07.585Z,90.10
2018-11-23T20:44:36.224Z,90.00
2018-11-23T20:47:04.821Z,90.00
2018-11-23T20:49:33.282Z,90.20
2018-11-23T20:52:02.450Z,90.10
2018-11-23T20:54:30.363Z,90.00
2018-11-23T20:56:58.879Z,89.90
2018-11-23T20:59:27.468Z,89.80
2018-11-23T21:01:55.973Z,90.00
2018-11-23T21:04:24.390Z,90.00
2018-11-23T21:06:52.837Z,90.00
2018-11-23T21:09:21.333Z,90.00
2018-11-23T21:11:49.830Z,90.00
2018-11-23T21:14:18.408Z,90.00
2018-11-23T21:16:46.879Z,90.00
2018-11-23T21:19:15.457Z,90.10
2018-11-23T21:21:43.936Z,90.10
2018-11-23T21:24:12.435Z,90.10
2018-11-23T21:26:41.100Z,90.10
2018-11-23T21:29:09.660Z,90.10
2018-11-23T21:31:38.182Z,90.10
2018-11-23T21:34:06.856Z,90.10
2018-11-23T21:36:35.392Z,90.10
2018-11-23T21:39:13.357Z,90.30
2018-11-23T21:41:34.576Z,90.30
2018-11-23T21:44:03.109Z,90.40
2018-11-23T21:46:31.547Z,90.50
2018-11-23T21:48:59.977Z,90.40
2018-11-23T21:51:28.858Z,90.40
2018-11-23T21:53:57.480Z,90.40
2018-11-23T21:56:25.880Z,90.40
2018-11-23T21:58:54.350Z,90.30
2018-11-23T22:01:22.956Z,90.30
2018-11-23T22:03:51.407Z,90.50
2018-11-23T22:06:19.804Z,90.40
2018-11-23T22:08:48.241Z,90.40
2018-11-23T22:11:16.684Z,90.40
2018-11-23T22:13:45.102Z,90.40
2018-11-23T22:16:13.564Z,90.40
2018-11-23T22:18:42.015Z,90.40
2018-11-23T22:21:10.559Z,90.40
2018-11-23T22:23:39.109Z,90.40
2018-11-23T22:26:07.516Z,90.40
2018-11-23T22:28:35.995Z,90.40
2018-11-23T22:31:04.571Z,90.70
2018-11-23T22:33:33.078Z,90.40
2018-11-23T22:36:01.535Z,90.30
2018-11-23T22:38:30.008Z,90.30
2018-11-23T22:40:58.440Z,90.40
2018-11-23T22:43:26.852Z,90.20
2018-11-23T22:45:55.264Z,90.20
2018-11-23T22:48:23.665Z,90.20
2018-11-23T22:50:52.081Z,90.20
2018-11-23T22:53:20.520Z,90.20
2018-11-23T22:55:48.989Z,90.20
2018-11-23T22:58:17.430Z,90.20
2018-11-23T23:00:46.110Z,90.20
2018-11-23T23:03:14.736Z,90.20
2018-11-23T23:05:43.308Z,90.20
2018-11-23T23:08:11.835Z,90.10
2018-11-23T23:10:40.350Z,90.10
2018-11-23T23:13:08.903Z,90.10
2018-11-23T23:15:37.950Z,90.10
2018-11-23T23:18:06.494Z,90.10
2018-11-23T23:20:34.941Z,90.20
2018-11-23T23:23:03.355Z,90.20
2018-11-23T23:25:31.869Z,90.30
2018-11-23T23:28:00.269Z,90.60
2018-11-23T23:30:28.734Z,90.50
2018-11-23T23:32:57.147Z,90.40
2018-11-23T23:35:25.550Z,90.40
2018-11-23T23:37:53.992Z,90.30
2018-11-23T23:40:22.433Z,90.30
2018-11-23T23:42:51.287Z,90.20
2018-11-23T23:45:19.740Z,90.10
2018-11-23T23:47:48.224Z,90.10
2018-11-23T23:50:18.748Z,90.10
2018-11-23T23:52:47.517Z,90.10
2018-11-23T23:55:16.006Z,90.00
2018-11-23T23:57:45.452Z,90.00
